sensor_id;sensor_type;location;lat;lon;timestamp;pressure;altitude;pressure_sealevel;temperature;humidity
34073;BME280;20346;52.702;16.886;2023-02-13T00:02:40;102860.05;;;5.60;85.59
34073;BME280;20346;52.702;16.886;2023-02-13T00:05:26;102856.79;;;5.60;85.59
34073;BME280;20346;52.702;16.886;2023-02-13T00:08:12;102854.59;;;5.60;85.54
34073;BME280;20346;52.702;16.886;2023-02-13T00:10:58;102851.36;;;5.61;85.56
34073;BME280;20346;52.702;16.886;2023-02-13T00:13:44;102852.98;;;5.63;85.52
34073;BME280;20346;52.702;16.886;2023-02-13T00:16:31;102847.54;;;5.64;85.52
34073;BME280;20346;52.702;16.886;2023-02-13T00:19:17;102848.59;;;5.64;85.58
34073;BME280;20346;52.702;16.886;2023-02-13T00:22:03;102841.71;;;5.64;85.54
34073;BME280;20346;52.702;16.886;2023-02-13T00:24:49;102838.80;;;5.63;85.47
34073;BME280;20346;52.702;16.886;2023-02-13T00:27:35;102835.54;;;5.63;85.47
34073;BME280;20346;52.702;16.886;2023-02-13T00:30:21;102839.14;;;5.63;85.51
34073;BME280;20346;52.702;16.886;2023-02-13T00:33:07;102835.21;;;5.64;85.50
34073;BME280;20346;52.702;16.886;2023-02-13T00:36:01;102834.71;;;5.64;85.49
34073;BME280;20346;52.702;16.886;2023-02-13T00:38:47;102837.64;;;5.65;85.47
34073;BME280;20346;52.702;16.886;2023-02-13T00:41:33;102829.05;;;5.63;85.46
34073;BME280;20346;52.702;16.886;2023-02-13T00:44:19;102830.76;;;5.63;85.43
34073;BME280;20346;52.702;16.886;2023-02-13T00:47:05;102823.74;;;5.64;85.44
34073;BME280;20346;52.702;16.886;2023-02-13T00:49:51;102827.37;;;5.64;85.48
34073;BME280;20346;52.702;16.886;2023-02-13T00:52:37;102829.91;;;5.64;85.44
34073;BME280;20346;52.702;16.886;2023-02-13T00:55:23;102826.30;;;5.63;85.47
34073;BME280;20346;52.702;16.886;2023-02-13T00:58:09;102821.86;;;5.63;85.46
34073;BME280;20346;52.702;16.886;2023-02-13T01:00:56;102815.39;;;5.64;85.45
34073;BME280;20346;52.702;16.886;2023-02-13T01:03:42;102822.41;;;5.64;85.46
34073;BME280;20346;52.702;16.886;2023-02-13T01:06:28;102829.62;;;5.65;85.47
34073;BME280;20346;52.702;16.886;2023-02-13T01:09:15;102821.39;;;5.64;85.44
34073;BME280;20346;52.702;16.886;2023-02-13T01:12:01;102819.51;;;5.64;85.48
34073;BME280;20346;52.702;16.886;2023-02-13T01:14:47;102825.83;;;5.64;85.55
34073;BME280;20346;52.702;16.886;2023-02-13T01:17:33;102835.07;;;5.64;85.51
34073;BME280;20346;52.702;16.886;2023-02-13T01:20:19;102835.77;;;5.64;85.58
34073;BME280;20346;52.702;16.886;2023-02-13T01:23:06;102833.72;;;5.65;85.58
34073;BME280;20346;52.702;16.886;2023-02-13T01:25:52;102834.59;;;5.65;85.62
34073;BME280;20346;52.702;16.886;2023-02-13T01:28:39;102826.41;;;5.66;85.60
34073;BME280;20346;52.702;16.886;2023-02-13T01:31:25;102824.92;;;5.68;85.65
34073;BME280;20346;52.702;16.886;2023-02-13T01:34:11;102813.15;;;5.69;85.63
34073;BME280;20346;52.702;16.886;2023-02-13T01:36:57;102812.33;;;5.69;85.66
34073;BME280;20346;52.702;16.886;2023-02-13T01:39:43;102813.69;;;5.69;85.71
34073;BME280;20346;52.702;16.886;2023-02-13T01:42:31;102810.46;;;5.70;85.66
34073;BME280;20346;52.702;16.886;2023-02-13T01:45:25;102807.70;;;5.69;85.70
34073;BME280;20346;52.702;16.886;2023-02-13T01:48:14;102804.32;;;5.70;85.74
34073;BME280;20346;52.702;16.886;2023-02-13T01:51:02;102804.48;;;5.70;85.78
34073;BME280;20346;52.702;16.886;2023-02-13T01:54:09;102805.55;;;5.71;85.76
34073;BME280;20346;52.702;16.886;2023-02-13T01:56:58;102802.83;;;5.72;85.84
34073;BME280;20346;52.702;16.886;2023-02-13T01:59:47;102799.09;;;5.73;85.83
34073;BME280;20346;52.702;16.886;2023-02-13T02:02:36;102798.23;;;5.73;85.86
34073;BME280;20346;52.702;16.886;2023-02-13T02:05:23;102796.88;;;5.73;85.85
34073;BME280;20346;52.702;16.886;2023-02-13T02:08:11;102793.11;;;5.73;85.86
34073;BME280;20346;52.702;16.886;2023-02-13T02:11:00;102790.58;;;5.74;85.86
34073;BME280;20346;52.702;16.886;2023-02-13T02:13:47;102793.83;;;5.74;85.88
34073;BME280;20346;52.702;16.886;2023-02-13T02:16:33;102791.27;;;5.74;85.92
34073;BME280;20346;52.702;16.886;2023-02-13T02:19:34;102789.09;;;5.75;85.92
34073;BME280;20346;52.702;16.886;2023-02-13T02:28:30;102790.26;;;5.74;85.94
34073;BME280;20346;52.702;16.886;2023-02-13T02:34:30;102787.34;;;5.75;85.89
34073;BME280;20346;52.702;16.886;2023-02-13T02:37:29;102791.80;;;5.75;85.98
34073;BME280;20346;52.702;16.886;2023-02-13T02:43:55;102785.80;;;5.75;86.03
34073;BME280;20346;52.702;16.886;2023-02-13T02:49:50;102793.42;;;5.77;86.02
34073;BME280;20346;52.702;16.886;2023-02-13T02:52:58;102796.84;;;5.77;86.02
34073;BME280;20346;52.702;16.886;2023-02-13T02:55:51;102798.41;;;5.77;86.08
34073;BME280;20346;52.702;16.886;2023-02-13T03:01:44;102797.80;;;5.79;86.08
34073;BME280;20346;52.702;16.886;2023-02-13T03:04:50;102797.24;;;5.78;86.14
34073;BME280;20346;52.702;16.886;2023-02-13T03:07:56;102797.70;;;5.77;86.06
34073;BME280;20346;52.702;16.886;2023-02-13T03:10:42;102794.48;;;5.77;86.17
34073;BME280;20346;52.702;16.886;2023-02-13T03:13:47;102785.61;;;5.78;86.18
34073;BME280;20346;52.702;16.886;2023-02-13T03:16:34;102785.78;;;5.78;86.14
34073;BME280;20346;52.702;16.886;2023-02-13T03:26:06;102786.72;;;5.76;86.28
34073;BME280;20346;52.702;16.886;2023-02-13T03:32:09;102777.86;;;5.77;86.33
34073;BME280;20346;52.702;16.886;2023-02-13T03:35:00;102779.23;;;5.77;86.20
34073;BME280;20346;52.702;16.886;2023-02-13T03:38:16;102780.92;;;5.77;86.27
34073;BME280;20346;52.702;16.886;2023-02-13T03:41:04;102778.18;;;5.76;86.36
34073;BME280;20346;52.702;16.886;2023-02-13T03:46:51;102780.40;;;5.76;86.30
34073;BME280;20346;52.702;16.886;2023-02-13T03:49:42;102777.66;;;5.76;86.32
34073;BME280;20346;52.702;16.886;2023-02-13T03:52:57;102774.73;;;5.76;86.36
34073;BME280;20346;52.702;16.886;2023-02-13T03:55:45;102773.90;;;5.76;86.36
34073;BME280;20346;52.702;16.886;2023-02-13T03:58:52;102767.09;;;5.77;86.41
34073;BME280;20346;52.702;16.886;2023-02-13T04:07:50;102765.14;;;5.75;86.39
34073;BME280;20346;52.702;16.886;2023-02-13T04:10:38;102767.85;;;5.75;86.36
34073;BME280;20346;52.702;16.886;2023-02-13T04:13:34;102773.71;;;5.76;86.35
34073;BME280;20346;52.702;16.886;2023-02-13T04:16:27;102771.14;;;5.76;86.41
34073;BME280;20346;52.702;16.886;2023-02-13T04:19:14;102773.71;;;5.76;86.43
34073;BME280;20346;52.702;16.886;2023-02-13T04:22:01;102775.59;;;5.76;86.39
34073;BME280;20346;52.702;16.886;2023-02-13T04:24:48;102778.31;;;5.75;86.44
34073;BME280;20346;52.702;16.886;2023-02-13T04:27:34;102781.21;;;5.75;86.37
34073;BME280;20346;52.702;16.886;2023-02-13T04:30:20;102780.15;;;5.74;86.42
34073;BME280;20346;52.702;16.886;2023-02-13T04:33:06;102780.82;;;5.74;86.45
34073;BME280;20346;52.702;16.886;2023-02-13T04:35:53;102778.06;;;5.74;86.38
34073;BME280;20346;52.702;16.886;2023-02-13T04:38:39;102771.73;;;5.74;86.42
34073;BME280;20346;52.702;16.886;2023-02-13T04:41:25;102778.89;;;5.73;86.38
34073;BME280;20346;52.702;16.886;2023-02-13T04:44:11;102780.23;;;5.72;86.44
34073;BME280;20346;52.702;16.886;2023-02-13T04:46:57;102777.48;;;5.71;86.45
34073;BME280;20346;52.702;16.886;2023-02-13T04:49:43;102780.56;;;5.71;86.43
34073;BME280;20346;52.702;16.886;2023-02-13T04:52:29;102784.70;;;5.72;86.45
34073;BME280;20346;52.702;16.886;2023-02-13T04:55:16;102785.90;;;5.72;86.46
34073;BME280;20346;52.702;16.886;2023-02-13T04:58:02;102785.21;;;5.72;86.47
34073;BME280;20346;52.702;16.886;2023-02-13T05:00:48;102787.08;;;5.72;86.49
34073;BME280;20346;52.702;16.886;2023-02-13T05:03:34;102786.89;;;5.71;86.44
34073;BME280;20346;52.702;16.886;2023-02-13T05:06:21;102788.27;;;5.71;86.46
34073;BME280;20346;52.702;16.886;2023-02-13T05:09:08;102793.39;;;5.71;86.44
34073;BME280;20346;52.702;16.886;2023-02-13T05:11:54;102789.27;;;5.70;86.49
34073;BME280;20346;52.702;16.886;2023-02-13T05:14:40;102785.34;;;5.70;86.50
34073;BME280;20346;52.702;16.886;2023-02-13T05:17:26;102793.05;;;5.71;86.52
34073;BME280;20346;52.702;16.886;2023-02-13T05:20:13;102789.27;;;5.70;86.48
34073;BME280;20346;52.702;16.886;2023-02-13T05:22:59;102789.11;;;5.71;86.48
34073;BME280;20346;52.702;16.886;2023-02-13T05:26:04;102793.94;;;5.72;86.53
34073;BME280;20346;52.702;16.886;2023-02-13T05:28:50;102789.30;;;5.72;86.47
34073;BME280;20346;52.702;16.886;2023-02-13T05:31:55;102789.80;;;5.71;86.42
34073;BME280;20346;52.702;16.886;2023-02-13T05:34:42;102788.66;;;5.68;86.35
34073;BME280;20346;52.702;16.886;2023-02-13T05:37:28;102790.49;;;5.67;86.43
34073;BME280;20346;52.702;16.886;2023-02-13T05:40:14;102796.42;;;5.65;86.40
34073;BME280;20346;52.702;16.886;2023-02-13T05:43:00;102803.94;;;5.65;86.48
34073;BME280;20346;52.702;16.886;2023-02-13T05:45:47;102807.86;;;5.64;86.38
34073;BME280;20346;52.702;16.886;2023-02-13T05:48:33;102800.46;;;5.63;86.40
34073;BME280;20346;52.702;16.886;2023-02-13T05:51:19;102806.23;;;5.62;86.35
34073;BME280;20346;52.702;16.886;2023-02-13T05:54:05;102808.20;;;5.60;86.36
34073;BME280;20346;52.702;16.886;2023-02-13T05:56:52;102809.05;;;5.60;86.32
34073;BME280;20346;52.702;16.886;2023-02-13T05:59:38;102800.14;;;5.59;86.35
34073;BME280;20346;52.702;16.886;2023-02-13T06:02:24;102794.67;;;5.60;86.35
34073;BME280;20346;52.702;16.886;2023-02-13T06:05:10;102791.23;;;5.59;86.39
34073;BME280;20346;52.702;16.886;2023-02-13T06:07:56;102793.27;;;5.58;86.34
34073;BME280;20346;52.702;16.886;2023-02-13T06:10:42;102797.88;;;5.58;86.33
34073;BME280;20346;52.702;16.886;2023-02-13T06:13:28;102795.77;;;5.57;86.30
34073;BME280;20346;52.702;16.886;2023-02-13T06:16:14;102801.77;;;5.58;86.32
34073;BME280;20346;52.702;16.886;2023-02-13T06:19:00;102803.16;;;5.58;86.33
34073;BME280;20346;52.702;16.886;2023-02-13T06:21:47;102805.54;;;5.58;86.32
34073;BME280;20346;52.702;16.886;2023-02-13T06:24:33;102815.96;;;5.57;86.25
34073;BME280;20346;52.702;16.886;2023-02-13T06:27:19;102821.57;;;5.56;86.25
34073;BME280;20346;52.702;16.886;2023-02-13T06:30:05;102818.98;;;5.56;86.30
34073;BME280;20346;52.702;16.886;2023-02-13T06:32:51;102814.52;;;5.55;86.29
34073;BME280;20346;52.702;16.886;2023-02-13T06:35:37;102817.44;;;5.55;86.25
34073;BME280;20346;52.702;16.886;2023-02-13T06:38:23;102817.92;;;5.55;86.24
34073;BME280;20346;52.702;16.886;2023-02-13T06:41:10;102815.33;;;5.54;86.19
34073;BME280;20346;52.702;16.886;2023-02-13T06:43:56;102819.45;;;5.54;86.22
34073;BME280;20346;52.702;16.886;2023-02-13T06:46:42;102820.48;;;5.55;86.20
34073;BME280;20346;52.702;16.886;2023-02-13T06:49:28;102820.30;;;5.54;86.13
34073;BME280;20346;52.702;16.886;2023-02-13T06:52:14;102825.24;;;5.54;86.18
34073;BME280;20346;52.702;16.886;2023-02-13T06:55:00;102828.33;;;5.55;86.20
34073;BME280;20346;52.702;16.886;2023-02-13T06:57:46;102830.02;;;5.54;86.10
34073;BME280;20346;52.702;16.886;2023-02-13T07:00:32;102829.84;;;5.53;86.07
34073;BME280;20346;52.702;16.886;2023-02-13T07:03:18;102834.45;;;5.53;86.16
34073;BME280;20346;52.702;16.886;2023-02-13T07:06:04;102834.16;;;5.55;86.07
34073;BME280;20346;52.702;16.886;2023-02-13T07:08:50;102835.21;;;5.55;86.10
34073;BME280;20346;52.702;16.886;2023-02-13T07:11:40;102845.35;;;5.56;86.16
34073;BME280;20346;52.702;16.886;2023-02-13T07:14:26;102848.31;;;5.58;86.17
34073;BME280;20346;52.702;16.886;2023-02-13T07:17:12;102847.42;;;5.57;86.10
34073;BME280;20346;52.702;16.886;2023-02-13T07:19:58;102850.15;;;5.57;86.11
34073;BME280;20346;52.702;16.886;2023-02-13T07:22:44;102854.27;;;5.57;86.03
34073;BME280;20346;52.702;16.886;2023-02-13T07:25:30;102863.35;;;5.57;86.03
34073;BME280;20346;52.702;16.886;2023-02-13T07:28:16;102865.73;;;5.57;86.01
34073;BME280;20346;52.702;16.886;2023-02-13T07:31:03;102864.56;;;5.58;85.99
34073;BME280;20346;52.702;16.886;2023-02-13T07:33:51;102860.62;;;5.57;86.05
34073;BME280;20346;52.702;16.886;2023-02-13T07:36:37;102857.91;;;5.58;86.03
34073;BME280;20346;52.702;16.886;2023-02-13T07:39:23;102855.56;;;5.59;86.05
34073;BME280;20346;52.702;16.886;2023-02-13T07:42:09;102851.48;;;5.60;85.98
34073;BME280;20346;52.702;16.886;2023-02-13T07:44:55;102855.09;;;5.60;86.00
34073;BME280;20346;52.702;16.886;2023-02-13T07:47:41;102857.91;;;5.62;85.98
34073;BME280;20346;52.702;16.886;2023-02-13T07:50:27;102858.81;;;5.63;86.01
34073;BME280;20346;52.702;16.886;2023-02-13T07:53:13;102862.25;;;5.64;85.94
34073;BME280;20346;52.702;16.886;2023-02-13T07:56:03;102858.86;;;5.65;85.92
34073;BME280;20346;52.702;16.886;2023-02-13T07:58:50;102856.54;;;5.67;85.91
34073;BME280;20346;52.702;16.886;2023-02-13T08:01:36;102853.50;;;5.68;85.90
34073;BME280;20346;52.702;16.886;2023-02-13T08:04:22;102856.48;;;5.70;85.87
34073;BME280;20346;52.702;16.886;2023-02-13T08:07:08;102857.91;;;5.71;85.92
34073;BME280;20346;52.702;16.886;2023-02-13T08:09:54;102857.45;;;5.73;85.88
34073;BME280;20346;52.702;16.886;2023-02-13T08:12:59;102855.27;;;5.74;85.83
34073;BME280;20346;52.702;16.886;2023-02-13T08:15:45;102857.64;;;5.74;85.79
34073;BME280;20346;52.702;16.886;2023-02-13T08:18:32;102857.14;;;5.74;85.74
34073;BME280;20346;52.702;16.886;2023-02-13T08:21:18;102852.75;;;5.75;85.83
34073;BME280;20346;52.702;16.886;2023-02-13T08:24:04;102852.27;;;5.76;85.78
34073;BME280;20346;52.702;16.886;2023-02-13T08:26:51;102853.67;;;5.77;85.77
34073;BME280;20346;52.702;16.886;2023-02-13T08:29:37;102850.60;;;5.77;85.73
34073;BME280;20346;52.702;16.886;2023-02-13T08:32:23;102851.63;;;5.77;85.74
34073;BME280;20346;52.702;16.886;2023-02-13T08:35:09;102852.88;;;5.78;85.71
34073;BME280;20346;52.702;16.886;2023-02-13T08:37:56;102851.88;;;5.79;85.66
34073;BME280;20346;52.702;16.886;2023-02-13T08:40:42;102854.90;;;5.82;85.70
34073;BME280;20346;52.702;16.886;2023-02-13T08:43:29;102857.68;;;5.83;85.67
34073;BME280;20346;52.702;16.886;2023-02-13T08:46:16;102853.13;;;5.84;85.65
34073;BME280;20346;52.702;16.886;2023-02-13T08:49:02;102852.49;;;5.86;85.66
34073;BME280;20346;52.702;16.886;2023-02-13T08:51:48;102849.17;;;5.88;85.63
34073;BME280;20346;52.702;16.886;2023-02-13T08:54:35;102843.09;;;5.90;85.61
34073;BME280;20346;52.702;16.886;2023-02-13T08:57:21;102838.17;;;5.91;85.62
34073;BME280;20346;52.702;16.886;2023-02-13T09:00:07;102844.07;;;5.93;85.58
34073;BME280;20346;52.702;16.886;2023-02-13T09:02:54;102844.50;;;5.95;85.57
34073;BME280;20346;52.702;16.886;2023-02-13T09:05:40;102840.77;;;5.96;85.60
34073;BME280;20346;52.702;16.886;2023-02-13T09:08:26;102841.88;;;5.98;85.50
34073;BME280;20346;52.702;16.886;2023-02-13T09:11:13;102841.90;;;5.98;85.49
34073;BME280;20346;52.702;16.886;2023-02-13T09:13:59;102845.86;;;6.00;85.52
34073;BME280;20346;52.702;16.886;2023-02-13T09:16:46;102845.21;;;6.01;85.44
34073;BME280;20346;52.702;16.886;2023-02-13T09:19:32;102843.23;;;6.03;85.43
34073;BME280;20346;52.702;16.886;2023-02-13T09:22:18;102841.92;;;6.04;85.48
34073;BME280;20346;52.702;16.886;2023-02-13T09:25:04;102838.67;;;6.04;85.38
34073;BME280;20346;52.702;16.886;2023-02-13T09:27:51;102835.63;;;6.05;85.32
34073;BME280;20346;52.702;16.886;2023-02-13T09:30:37;102838.77;;;6.06;85.33
34073;BME280;20346;52.702;16.886;2023-02-13T09:33:24;102840.33;;;6.07;85.36
34073;BME280;20346;52.702;16.886;2023-02-13T09:36:12;102840.05;;;6.08;85.37
34073;BME280;20346;52.702;16.886;2023-02-13T09:38:59;102838.10;;;6.11;85.35
34073;BME280;20346;52.702;16.886;2023-02-13T09:41:47;102835.70;;;6.11;85.33
34073;BME280;20346;52.702;16.886;2023-02-13T09:44:35;102845.88;;;6.13;85.28
34073;BME280;20346;52.702;16.886;2023-02-13T09:50:36;102847.77;;;6.18;85.33
34073;BME280;20346;52.702;16.886;2023-02-13T09:53:25;102850.56;;;6.19;85.30
34073;BME280;20346;52.702;16.886;2023-02-13T09:56:15;102848.04;;;6.20;85.26
34073;BME280;20346;52.702;16.886;2023-02-13T09:59:05;102848.60;;;6.22;85.22
34073;BME280;20346;52.702;16.886;2023-02-13T10:01:53;102852.41;;;6.23;85.19
34073;BME280;20346;52.702;16.886;2023-02-13T10:04:46;102856.16;;;6.22;85.20
34073;BME280;20346;52.702;16.886;2023-02-13T10:10:29;102850.94;;;6.26;85.14
34073;BME280;20346;52.702;16.886;2023-02-13T10:19:42;102843.11;;;6.31;85.14
34073;BME280;20346;52.702;16.886;2023-02-13T10:22:40;102846.45;;;6.34;85.13
34073;BME280;20346;52.702;16.886;2023-02-13T10:25:29;102843.79;;;6.36;85.11
34073;BME280;20346;52.702;16.886;2023-02-13T10:28:19;102838.95;;;6.39;85.17
34073;BME280;20346;52.702;16.886;2023-02-13T10:31:13;102840.96;;;6.43;85.12
34073;BME280;20346;52.702;16.886;2023-02-13T10:34:01;102844.38;;;6.47;85.06
34073;BME280;20346;52.702;16.886;2023-02-13T10:36:48;102841.94;;;6.50;85.07
34073;BME280;20346;52.702;16.886;2023-02-13T10:39:34;102836.55;;;6.53;85.02
34073;BME280;20346;52.702;16.886;2023-02-13T10:42:21;102835.23;;;6.55;85.01
34073;BME280;20346;52.702;16.886;2023-02-13T10:45:13;102837.27;;;6.59;85.05
34073;BME280;20346;52.702;16.886;2023-02-13T10:54:03;102828.67;;;6.73;85.06
34073;BME280;20346;52.702;16.886;2023-02-13T10:57:18;102822.77;;;6.76;84.89
34073;BME280;20346;52.702;16.886;2023-02-13T11:00:03;102820.45;;;6.78;84.95
34073;BME280;20346;52.702;16.886;2023-02-13T11:02:50;102816.77;;;6.81;84.90
34073;BME280;20346;52.702;16.886;2023-02-13T11:05:38;102819.05;;;6.82;84.89
34073;BME280;20346;52.702;16.886;2023-02-13T11:08:29;102824.15;;;6.86;84.90
34073;BME280;20346;52.702;16.886;2023-02-13T11:11:30;102825.77;;;6.88;84.87
34073;BME280;20346;52.702;16.886;2023-02-13T11:14:17;102821.75;;;6.91;84.81
34073;BME280;20346;52.702;16.886;2023-02-13T11:17:11;102818.87;;;6.92;84.88
34073;BME280;20346;52.702;16.886;2023-02-13T11:20:03;102820.49;;;6.94;84.77
34073;BME280;20346;52.702;16.886;2023-02-13T11:22:52;102824.55;;;6.97;84.75
34073;BME280;20346;52.702;16.886;2023-02-13T11:25:40;102820.44;;;7.03;84.74
34073;BME280;20346;52.702;16.886;2023-02-13T11:28:27;102818.32;;;7.06;84.74
34073;BME280;20346;52.702;16.886;2023-02-13T11:34:27;102814.59;;;7.07;84.48
34073;BME280;20346;52.702;16.886;2023-02-13T11:37:16;102809.11;;;7.07;84.40
34073;BME280;20346;52.702;16.886;2023-02-13T11:40:19;102809.36;;;7.10;84.33
34073;BME280;20346;52.702;16.886;2023-02-13T11:43:06;102804.07;;;7.10;84.29
34073;BME280;20346;52.702;16.886;2023-02-13T11:46:15;102797.77;;;7.12;84.36
34073;BME280;20346;52.702;16.886;2023-02-13T11:49:02;102795.02;;;7.12;84.29
34073;BME280;20346;52.702;16.886;2023-02-13T11:52:32;102804.13;;;7.12;84.27
34073;BME280;20346;52.702;16.886;2023-02-13T11:54:59;102805.15;;;7.12;84.03
34073;BME280;20346;52.702;16.886;2023-02-13T11:57:54;102803.42;;;7.12;84.10
34073;BME280;20346;52.702;16.886;2023-02-13T12:00:41;102807.00;;;7.11;84.01
34073;BME280;20346;52.702;16.886;2023-02-13T12:03:29;102805.30;;;7.11;84.07
34073;BME280;20346;52.702;16.886;2023-02-13T12:06:16;102800.19;;;7.12;84.01
34073;BME280;20346;52.702;16.886;2023-02-13T12:09:13;102799.48;;;7.12;83.85
34073;BME280;20346;52.702;16.886;2023-02-13T12:12:00;102804.41;;;7.10;83.93
34073;BME280;20346;52.702;16.886;2023-02-13T12:14:48;102804.16;;;7.08;83.74
34073;BME280;20346;52.702;16.886;2023-02-13T12:17:34;102801.05;;;7.08;83.93
34073;BME280;20346;52.702;16.886;2023-02-13T12:20:20;102801.17;;;7.06;83.78
34073;BME280;20346;52.702;16.886;2023-02-13T12:23:11;102802.38;;;7.06;83.82
34073;BME280;20346;52.702;16.886;2023-02-13T12:35:28;102774.59;;;7.01;83.60
34073;BME280;20346;52.702;16.886;2023-02-13T12:41:11;102766.09;;;6.98;83.62
34073;BME280;20346;52.702;16.886;2023-02-13T12:47:06;102768.54;;;6.94;83.61
34073;BME280;20346;52.702;16.886;2023-02-13T12:53:23;102764.41;;;6.93;83.53
34073;BME280;20346;52.702;16.886;2023-02-13T13:08:23;102744.60;;;6.91;83.29
34073;BME280;20346;52.702;16.886;2023-02-13T13:23:32;102720.96;;;6.91;83.33
34073;BME280;20346;52.702;16.886;2023-02-13T13:26:40;102703.27;;;6.90;83.28
34073;BME280;20346;52.702;16.886;2023-02-13T13:32:15;102698.04;;;6.88;83.17
34073;BME280;20346;52.702;16.886;2023-02-13T13:35:02;102711.54;;;6.87;83.24
34073;BME280;20346;52.702;16.886;2023-02-13T13:38:01;102716.70;;;6.87;83.28
34073;BME280;20346;52.702;16.886;2023-02-13T13:40:55;102719.13;;;6.88;83.20
34073;BME280;20346;52.702;16.886;2023-02-13T13:43:54;102720.05;;;6.90;83.17
34073;BME280;20346;52.702;16.886;2023-02-13T13:52:31;102721.37;;;6.88;83.05
34073;BME280;20346;52.702;16.886;2023-02-13T13:58:24;102728.88;;;6.87;83.18
34073;BME280;20346;52.702;16.886;2023-02-13T14:04:02;102730.54;;;6.85;83.14
34073;BME280;20346;52.702;16.886;2023-02-13T14:09:44;102737.87;;;6.84;83.05
34073;BME280;20346;52.702;16.886;2023-02-13T14:21:23;102722.16;;;6.76;82.92
34073;BME280;20346;52.702;16.886;2023-02-13T14:24:10;102719.08;;;6.76;82.99
34073;BME280;20346;52.702;16.886;2023-02-13T14:26:56;102734.10;;;6.74;82.86
34073;BME280;20346;52.702;16.886;2023-02-13T14:29:45;102737.63;;;6.72;82.87
34073;BME280;20346;52.702;16.886;2023-02-13T14:32:38;102726.95;;;6.70;82.70
34073;BME280;20346;52.702;16.886;2023-02-13T14:35:29;102722.97;;;6.69;82.80
34073;BME280;20346;52.702;16.886;2023-02-13T14:38:22;102721.55;;;6.68;82.66
34073;BME280;20346;52.702;16.886;2023-02-13T14:44:15;102718.02;;;6.64;82.55
34073;BME280;20346;52.702;16.886;2023-02-13T14:47:04;102726.56;;;6.63;82.50
34073;BME280;20346;52.702;16.886;2023-02-13T14:49:56;102725.84;;;6.62;82.58
34073;BME280;20346;52.702;16.886;2023-02-13T14:52:45;102720.96;;;6.60;82.56
34073;BME280;20346;52.702;16.886;2023-02-13T14:55:36;102721.23;;;6.58;82.49
34073;BME280;20346;52.702;16.886;2023-02-13T14:58:30;102717.23;;;6.56;82.46
34073;BME280;20346;52.702;16.886;2023-02-13T15:04:10;102717.48;;;6.54;82.37
34073;BME280;20346;52.702;16.886;2023-02-13T15:06:57;102722.02;;;6.51;82.37
34073;BME280;20346;52.702;16.886;2023-02-13T15:10:47;102727.64;;;6.50;82.31
34073;BME280;20346;52.702;16.886;2023-02-13T15:13:01;102729.25;;;6.47;82.20
34073;BME280;20346;52.702;16.886;2023-02-13T15:15:57;102727.32;;;6.46;82.29
34073;BME280;20346;52.702;16.886;2023-02-13T15:18:46;102723.13;;;6.44;82.19
34073;BME280;20346;52.702;16.886;2023-02-13T15:21:33;102717.91;;;6.41;82.18
34073;BME280;20346;52.702;16.886;2023-02-13T15:24:20;102722.46;;;6.40;82.22
34073;BME280;20346;52.702;16.886;2023-02-13T15:27:17;102721.40;;;6.38;82.17
34073;BME280;20346;52.702;16.886;2023-02-13T15:33:23;102731.23;;;6.36;82.20
34073;BME280;20346;52.702;16.886;2023-02-13T15:36:42;102726.23;;;6.35;82.06
34073;BME280;20346;52.702;16.886;2023-02-13T15:39:24;102724.46;;;6.33;82.09
34073;BME280;20346;52.702;16.886;2023-02-13T15:42:10;102719.81;;;6.32;82.02
34073;BME280;20346;52.702;16.886;2023-02-13T15:44:57;102714.28;;;6.31;81.95
34073;BME280;20346;52.702;16.886;2023-02-13T15:47:44;102710.14;;;6.30;81.97
34073;BME280;20346;52.702;16.886;2023-02-13T15:50:34;102708.88;;;6.28;81.98
34073;BME280;20346;52.702;16.886;2023-02-13T15:53:20;102710.54;;;6.27;81.93
34073;BME280;20346;52.702;16.886;2023-02-13T15:56:11;102708.98;;;6.26;81.90
34073;BME280;20346;52.702;16.886;2023-02-13T15:58:59;102707.40;;;6.25;81.80
34073;BME280;20346;52.702;16.886;2023-02-13T16:01:45;102714.05;;;6.24;81.92
34073;BME280;20346;52.702;16.886;2023-02-13T16:04:32;102708.39;;;6.23;81.71
34073;BME280;20346;52.702;16.886;2023-02-13T16:07:19;102705.45;;;6.22;81.78
34073;BME280;20346;52.702;16.886;2023-02-13T16:10:15;102711.75;;;6.21;81.78
34073;BME280;20346;52.702;16.886;2023-02-13T16:13:02;102714.44;;;6.20;81.75
34073;BME280;20346;52.702;16.886;2023-02-13T16:15:52;102710.60;;;6.18;81.76
34073;BME280;20346;52.702;16.886;2023-02-13T16:18:38;102717.63;;;6.18;81.80
34073;BME280;20346;52.702;16.886;2023-02-13T16:21:26;102723.25;;;6.17;81.68
34073;BME280;20346;52.702;16.886;2023-02-13T16:24:14;102726.13;;;6.16;81.71
34073;BME280;20346;52.702;16.886;2023-02-13T16:27:01;102725.75;;;6.15;81.62
34073;BME280;20346;52.702;16.886;2023-02-13T16:30:19;102716.66;;;6.15;81.72
34073;BME280;20346;52.702;16.886;2023-02-13T16:36:18;102699.56;;;6.11;81.61
34073;BME280;20346;52.702;16.886;2023-02-13T16:39:14;102699.01;;;6.10;81.58
34073;BME280;20346;52.702;16.886;2023-02-13T16:42:03;102698.41;;;6.08;81.62
34073;BME280;20346;52.702;16.886;2023-02-13T16:45:20;102705.09;;;6.07;81.53
34073;BME280;20346;52.702;16.886;2023-02-13T16:48:11;102703.56;;;6.08;81.50
34073;BME280;20346;52.702;16.886;2023-02-13T16:50:59;102714.98;;;6.07;81.42
34073;BME280;20346;52.702;16.886;2023-02-13T16:53:45;102713.78;;;6.07;81.40
34073;BME280;20346;52.702;16.886;2023-02-13T16:56:41;102710.52;;;6.06;81.47
34073;BME280;20346;52.702;16.886;2023-02-13T16:59:33;102716.48;;;6.05;81.39
34073;BME280;20346;52.702;16.886;2023-02-13T17:07:53;102725.70;;;6.04;81.37
34073;BME280;20346;52.702;16.886;2023-02-13T17:10:59;102726.12;;;6.02;81.39
34073;BME280;20346;52.702;16.886;2023-02-13T17:13:46;102721.06;;;6.00;81.15